Latest Weather Observations for Mount Lofty

IDS60801

Issued at 8:35 pm CST Tuesday 16 September 2014 (issued every 30 minutes, with the page automatically refreshed every 10 minutes)

About weather observations | Map of weather stations | Latest weather observations for SA | Other Formats
Station Details ID: 023842 Name: MOUNT LOFTY Lat: -34.98 Lon: 138.71 Height: 685.0 m
Data from the previous 72 hours. | See also: Recent months at Mount Lofty
Date/Time
CST
Temp
°C
App
Temp
°C
Dew
Point
Rel
Hum
%
Delta-T
°C
Wind Press
QNH
hPa
Press
MSL
hPa
Rain
since 9 am
mm
Dir
 
Spd
km/h
Gust
km/h
Spd
kts
Gust
kts
16/08:30pm 7.0 4.0 5.9 93 0.5 W 11 19 6 10 - - 0.0
16/08:00pm 7.0 3.6 5.8 92 0.6 W 13 22 7 12 - - 0.0
16/07:30pm 6.9 3.9 6.2 95 0.3 W 11 19 6 10 - - 0.0
16/07:00pm 7.4 4.1 6.3 93 0.5 W 13 22 7 12 - - 0.0
16/06:30pm 7.5 4.2 6.4 93 0.5 W 13 20 7 11 - - 0.0
16/06:00pm 7.7 4.9 7.0 95 0.3 W 11 17 6 9 - - 0.0
16/05:30pm 8.0 5.5 8.0 100 0.0 W 11 20 6 11 - - 0.0
16/05:00pm 8.1 6.3 7.8 98 0.1 W 7 15 4 8 - - 0.0
16/04:30pm 8.2 5.8 7.1 93 0.5 W 9 19 5 10 - - 0.0
16/04:00pm 8.3 5.5 6.9 91 0.7 W 11 24 6 13 - - 0.0
16/03:30pm 9.2 6.2 5.9 80 1.6 W 11 26 6 14 - - 0.0
16/03:00pm 9.8 6.5 4.8 71 2.3 W 11 22 6 12 - - 0.0
16/02:30pm 9.4 6.5 4.6 72 2.2 W 9 19 5 10 - - 0.0
16/02:00pm 9.2 6.4 7.0 86 1.1 W 11 22 6 12 - - 0.0
16/01:30pm 10.3 7.1 4.9 69 2.5 W 11 24 6 13 - - 0.0
16/01:00pm 10.6 7.3 4.3 65 2.9 W 11 26 6 14 - - 0.0
16/12:30pm 10.8 7.5 4.5 65 2.9 W 11 22 6 12 - - 0.0
16/12:00pm 10.5 7.1 5.9 73 2.2 W 13 26 7 14 - - 0.0
16/11:30am 10.2 7.3 6.7 79 1.7 W 11 20 6 11 - - 0.0
16/11:00am 9.5 6.7 6.8 83 1.3 W 11 20 6 11 - - 0.0
16/10:30am 9.1 6.5 7.7 91 0.7 W 11 19 6 10 - - 0.0
16/10:00am 9.2 6.1 5.4 77 1.8 W 11 26 6 14 - - 0.0
16/09:30am 9.2 6.8 7.2 87 1.0 W 9 24 5 13 - - 0.0
16/09:00am 7.7 5.1 7.7 100 0.0 W 11 24 6 13 - - 2.8
16/08:30am 7.5 4.5 7.5 100 0.0 W 13 24 7 13 - - 2.8
16/08:00am 7.4 5.1 7.4 100 0.0 W 9 24 5 13 - - 2.8
16/07:30am 7.6 5.3 7.6 100 0.0 W 9 15 5 8 - - 2.8
16/07:00am 7.5 4.8 7.5 100 0.0 W 11 26 6 14 - - 2.8
16/06:30am 7.3 4.6 7.3 100 0.0 W 11 24 6 13 - - 2.8
16/06:00am 7.3 4.6 7.3 100 0.0 W 11 22 6 12 - - 2.8
16/05:30am 7.3 4.2 7.3 100 0.0 WSW 13 22 7 12 - - 2.8
16/05:00am 7.4 4.7 7.4 100 0.0 W 11 26 6 14 - - 2.8
16/04:30am 7.3 4.2 7.3 100 0.0 WSW 13 26 7 14 - - 2.8
16/04:00am 7.5 5.2 7.5 100 0.0 WSW 9 20 5 11 - - 2.8
16/03:30am 7.4 5.5 7.4 100 0.0 W 7 15 4 8 - - 2.4
16/03:00am 7.3 5.0 7.3 100 0.0 WSW 9 19 5 10 - - 2.4
16/02:30am 7.0 4.6 7.0 100 0.0 WSW 9 19 5 10 - - 2.4
16/02:00am 7.2 4.5 7.2 100 0.0 WSW 11 22 6 12 - - 2.4
16/01:30am 7.1 4.7 7.1 100 0.0 WSW 9 24 5 13 - - 2.4
16/01:00am 7.2 4.5 7.2 100 0.0 WSW 11 24 6 13 - - 2.4
16/12:30am 7.3 4.6 7.3 100 0.0 WSW 11 22 6 12 - - 2.4
16/12:00am 7.3 4.6 7.3 100 0.0 WSW 11 19 6 10 - - 2.4
 
Date/Time
CST
Temp
°C
App
Temp
°C
Dew
Point
Rel
Hum
%
Delta-T
°C
Wind Press
QNH
hPa
Press
MSL
hPa
Rain
since 9 am
mm
Dir
 
Spd
km/h
Gust
km/h
Spd
kts
Gust
kts
15/11:30pm 7.4 5.1 7.4 100 0.0 SW 9 17 5 9 - - 2.4
15/11:00pm 7.3 4.6 7.3 100 0.0 SW 11 22 6 12 - - 2.4
15/10:30pm 7.5 4.8 7.5 100 0.0 SW 11 32 6 17 - - 2.4
15/10:00pm 7.5 5.2 7.5 100 0.0 SW 9 17 5 9 - - 2.2
15/09:30pm 7.5 4.8 7.5 100 0.0 SW 11 19 6 10 - - 2.2
15/09:00pm 7.5 4.8 7.5 100 0.0 SW 11 28 6 15 - - 2.2
15/08:30pm 7.7 5.1 7.7 100 0.0 SW 11 22 6 12 - - 2.2
15/08:00pm 7.8 5.2 7.8 100 0.0 SSW 11 30 6 16 - - 2.2
15/07:30pm 7.9 5.3 7.9 100 0.0 SSW 11 26 6 14 - - 2.2
15/07:00pm 8.3 5.4 8.3 100 0.0 SW 13 30 7 16 - - 2.2
15/06:30pm 8.4 5.6 8.4 100 0.0 SW 13 30 7 16 - - 2.0
15/06:00pm 8.5 5.7 8.5 100 0.0 SW 13 26 7 14 - - 1.6
15/05:30pm 8.6 5.4 8.6 100 0.0 SW 15 32 8 17 - - 1.6
15/05:00pm 8.6 5.4 8.6 100 0.0 WSW 15 30 8 16 - - 1.2
15/04:30pm 8.6 5.8 8.6 100 0.0 WSW 13 32 7 17 - - 1.2
15/04:00pm 8.6 5.4 8.6 100 0.0 WSW 15 41 8 22 - - 1.2
15/03:30pm 9.1 6.1 9.1 100 0.0 WSW 15 30 8 16 - - 0.6
15/03:00pm 9.3 6.7 9.3 100 0.0 WSW 13 30 7 16 - - 0.4
15/02:30pm 9.7 7.2 9.7 100 0.0 SW 13 24 7 13 - - 0.0
15/02:00pm 10.7 7.7 7.9 83 1.4 SW 13 32 7 17 - - 0.0
15/01:30pm 10.4 7.1 8.0 85 1.2 SW 15 28 8 15 - - 0.0
15/01:00pm 11.7 7.9 7.6 76 2.1 SSW 17 32 9 17 - - 0.0
15/12:30pm 9.9 6.2 8.0 88 1.0 SSW 17 28 9 15 - - 0.0
15/12:00pm 9.8 6.9 9.8 100 0.0 SW 15 26 8 14 - - 0.0
15/11:30am 10.7 8.9 10.7 100 0.0 WSW 11 20 6 11 - - 0.0
15/11:00am 10.5 8.6 10.5 100 0.0 W 11 20 6 11 - - 0.0
15/10:30am 9.5 7.7 9.5 100 0.0 W 9 24 5 13 - - 0.0
15/10:00am 9.0 7.1 9.0 100 0.0 W 9 15 5 8 - - 0.0
15/09:30am 8.8 6.4 8.8 100 0.0 W 11 24 6 13 - - 0.0
15/09:00am 9.4 6.4 9.4 100 0.0 W 15 30 8 16 - - 1.2
15/08:30am 9.3 5.6 9.3 100 0.0 W 19 37 10 20 - - 1.2
15/08:00am 8.9 5.1 8.9 100 0.0 WNW 19 37 10 20 - - 1.2
15/07:30am 8.9 5.1 8.9 100 0.0 WNW 19 32 10 17 - - 1.2
15/07:00am 8.7 4.8 8.7 100 0.0 WNW 19 32 10 17 - - 1.0
15/06:30am 8.3 4.7 8.3 100 0.0 WNW 17 35 9 19 - - 1.0
15/06:00am 8.2 4.0 8.2 100 0.0 WNW 20 35 11 19 - - 0.6
15/05:30am 8.0 4.3 8.0 100 0.0 WNW 17 30 9 16 - - 0.2
15/05:00am 7.9 3.8 7.9 100 0.0 WNW 19 32 10 17 - - 0.0
15/04:30am 8.0 3.7 8.0 100 0.0 WNW 20 33 11 18 - - 0.0
15/04:00am 8.3 4.3 8.3 100 0.0 WNW 19 33 10 18 - - 0.0
15/03:30am 8.3 4.3 8.3 100 0.0 WNW 19 35 10 19 - - 0.0
15/03:00am 8.6 4.7 8.6 100 0.0 WNW 19 28 10 15 - - 0.0
15/02:30am 8.4 4.2 8.4 100 0.0 WNW 20 33 11 18 - - 0.0
15/02:00am 8.5 4.6 8.5 100 0.0 WNW 19 35 10 19 - - 0.0
15/01:30am 9.3 5.9 9.3 100 0.0 WNW 17 26 9 14 - - 0.0
15/01:00am 9.5 5.8 9.5 100 0.0 WNW 19 32 10 17 - - 0.0
15/12:30am 9.9 6.3 9.9 100 0.0 WNW 19 32 10 17 - - 0.0
15/12:00am 10.4 8.5 10.4 100 0.0 W 11 22 6 12 - - 0.0
 
Date/Time
CST
Temp
°C
App
Temp
°C
Dew
Point
Rel
Hum
%
Delta-T
°C
Wind Press
QNH
hPa
Press
MSL
hPa
Rain
since 9 am
mm
Dir
 
Spd
km/h
Gust
km/h
Spd
kts
Gust
kts
14/11:30pm 12.3 9.1 7.0 70 2.6 WNW 13 24 7 13 - - 0.0
14/11:00pm 14.8 10.7 4.2 49 5.1 NW 15 22 8 12 - - 0.0
14/10:30pm 15.7 11.6 4.1 46 5.6 N 15 26 8 14 - - 0.0
14/10:00pm 15.9 12.5 4.0 45 5.7 ENE 11 28 6 15 - - 0.0
14/09:30pm 14.7 11.9 5.2 53 4.6 E 9 22 5 12 - - 0.0
14/09:00pm 14.5 11.8 5.8 56 4.3 E 9 19 5 10 - - 0.0
14/08:30pm 14.1 12.0 6.5 60 3.8 E 7 19 4 10 - - 0.0
14/08:00pm 13.4 11.0 7.2 66 3.1 ESE 9 17 5 9 - - 0.0
14/07:30pm 12.9 10.6 7.4 69 2.8 E 9 20 5 11 - - 0.0
14/07:00pm 13.4 11.1 7.6 68 3.0 E 9 17 5 9 - - 0.0
14/06:30pm 13.6 12.0 8.2 70 2.8 ESE 6 13 3 7 - - 0.0
14/06:00pm 13.8 12.2 8.6 71 2.7 E 7 15 4 8 - - 0.0
14/05:30pm 14.0 12.4 8.8 71 2.7 E 7 15 4 8 - - 0.0
14/05:00pm 15.5 13.6 9.0 65 3.5 E 9 17 5 9 - - 0.0
14/04:30pm 16.1 14.3 9.3 64 3.6 E 9 17 5 9 - - 0.0
14/04:00pm 16.5 14.8 9.7 64 3.7 ESE 9 17 5 9 - - 0.0
14/03:30pm 18.1 16.8 10.0 59 4.4 E 7 17 4 9 - - 0.0
14/03:00pm 19.6 17.4 6.0 41 7.0 NNE 7 17 4 9 - - 0.0
14/02:30pm 19.8 17.3 4.7 37 7.6 NNW 7 11 4 6 - - 0.0
14/02:00pm 19.3 16.5 5.0 39 7.2 NNW 9 15 5 8 - - 0.0
14/01:30pm 19.3 16.5 5.0 39 7.2 NW 9 19 5 10 - - 0.0
14/01:00pm 18.6 15.3 4.8 40 6.9 NW 11 19 6 10 - - 0.0
14/12:30pm 18.0 14.6 4.2 40 6.8 WNW 11 20 6 11 - - 0.0
14/12:00pm 17.6 14.4 4.9 43 6.3 NW 11 17 6 9 - - 0.0
14/11:30am 16.0 13.5 4.7 47 5.5 NNW 7 11 4 6 - - 0.0
14/11:00am 15.7 13.2 5.0 49 5.3 NW 7 13 4 7 - - 0.0
14/10:30am 15.8 12.9 4.8 48 5.4 WNW 9 17 5 9 - - 0.0
14/10:00am 16.1 13.4 5.4 49 5.3 NW 9 13 5 7 - - 0.0
14/09:30am 15.2 12.2 4.0 47 5.4 NNW 9 15 5 8 - - 0.0
14/09:00am 15.3 12.0 4.4 48 5.3 NNW 11 17 6 9 - - 0.0
14/08:30am 14.0 10.4 3.2 48 5.0 NNW 11 19 6 10 - - 0.0
14/08:00am 13.9 10.3 3.1 48 5.0 N 11 20 6 11 - - 0.0
14/07:30am 13.3 9.9 3.9 53 4.4 N 11 17 6 9 - - 0.0
14/07:00am 12.6 9.5 3.8 55 4.1 N 9 13 5 7 - - 0.0
14/06:30am 12.1 8.9 3.3 55 4.1 NNW 9 13 5 7 - - 0.0
14/06:00am 12.9 9.7 3.3 52 4.4 N 9 13 5 7 - - 0.0
14/05:30am 12.8 10.1 3.5 53 4.3 N 7 11 4 6 - - 0.0
14/05:00am 12.5 9.7 3.2 53 4.3 NNE 7 11 4 6 - - 0.0
14/04:30am 12.7 10.0 3.6 54 4.2 N 7 9 4 5 - - 0.0
14/04:00am 12.1 9.6 3.6 56 3.9 N 6 9 3 5 - - 0.0
14/03:30am 11.8 9.3 3.8 58 3.7 N 6 9 3 5 - - 0.0
14/03:00am 11.6 9.1 3.9 59 3.6 NW 6 9 3 5 - - 0.0
14/02:30am 11.9 9.5 4.2 59 3.6 NW 6 9 3 5 - - 0.0
14/02:00am 11.9 9.5 4.4 60 3.5 NNW 6 11 3 6 - - 0.0
14/01:30am 12.0 9.3 3.5 56 3.9 N 7 9 4 5 - - 0.0
14/01:00am 10.9 8.7 3.5 60 3.4 NNW 4 7 2 4 - - 0.0
14/12:30am 10.5 8.7 3.3 61 3.3 WNW 2 6 1 3 - - 0.0
14/12:00am 10.8 8.6 3.6 61 3.3 W 4 6 2 3 - - 0.0
 
Date/Time
CST
Temp
°C
App
Temp
°C
Dew
Point
Rel
Hum
%
Delta-T
°C
Wind Press
QNH
hPa
Press
MSL
hPa
Rain
since 9 am
mm
Dir
 
Spd
km/h
Gust
km/h
Spd
kts
Gust
kts
13/11:30pm 11.7 9.2 3.7 58 3.7 W 6 9 3 5 - - 0.0
13/11:00pm 11.5 9.0 3.5 58 3.7 W 6 11 3 6 - - 0.0
13/10:30pm 11.9 9.4 3.7 57 3.8 W 6 11 3 6 - - 0.0
13/10:00pm 12.4 9.8 3.4 54 4.2 W 6 13 3 7 - - 0.0
13/09:30pm 12.4 9.5 2.8 52 4.4 WSW 7 13 4 7 - - 0.0
13/09:00pm 12.0 9.2 3.3 55 4.0 SW 7 13 4 7 - - 0.0

Other Formats:

Comma delimited format used in spreadsheet applications
http://www.bom.gov.au/fwo/IDS60801/IDS60801.95678.axf

JavaScript Object Notation format (JSON) in row-major order
http://www.bom.gov.au/fwo/IDS60801/IDS60801.95678.json